sensor_id;sensor_type;location;lat;lon;timestamp;pressure;altitude;pressure_sealevel;temperature;humidity
83140;BME280;73027;54.208;19.128;2024-02-26T00:01:56;100657.41;;;8.26;68.24
83140;BME280;73027;54.208;19.128;2024-02-26T00:04:21;100661.94;;;8.15;68.36
83140;BME280;73027;54.208;19.128;2024-02-26T00:06:47;100657.94;;;8.05;68.41
83140;BME280;73027;54.208;19.128;2024-02-26T00:09:15;100664.88;;;8.01;68.87
83140;BME280;73027;54.208;19.128;2024-02-26T00:11:40;100657.41;;;7.92;68.86
83140;BME280;73027;54.208;19.128;2024-02-26T00:14:05;100657.69;;;7.80;68.58
83140;BME280;73027;54.208;19.128;2024-02-26T00:16:31;100666.19;;;7.82;68.89
83140;BME280;73027;54.208;19.128;2024-02-26T00:18:56;100659.44;;;7.80;69.12
83140;BME280;73027;54.208;19.128;2024-02-26T00:21:22;100662.09;;;7.75;69.35
83140;BME280;73027;54.208;19.128;2024-02-26T00:23:49;100659.50;;;7.77;69.42
83140;BME280;73027;54.208;19.128;2024-02-26T00:26:15;100661.19;;;7.78;69.07
83140;BME280;73027;54.208;19.128;2024-02-26T00:28:41;100656.97;;;7.75;69.43
83140;BME280;73027;54.208;19.128;2024-02-26T00:31:06;100656.13;;;7.75;69.94
83140;BME280;73027;54.208;19.128;2024-02-26T00:33:31;100651.66;;;7.83;69.51
83140;BME280;73027;54.208;19.128;2024-02-26T00:35:57;100652.50;;;7.83;69.32
83140;BME280;73027;54.208;19.128;2024-02-26T00:38:22;100649.13;;;7.81;69.42
83140;BME280;73027;54.208;19.128;2024-02-26T00:40:47;100656.13;;;7.75;69.09
83140;BME280;73027;54.208;19.128;2024-02-26T00:43:13;100658.81;;;7.68;68.60
83140;BME280;73027;54.208;19.128;2024-02-26T00:45:38;100658.28;;;7.56;68.79
83140;BME280;73027;54.208;19.128;2024-02-26T00:48:03;100657.72;;;7.43;68.72
83140;BME280;73027;54.208;19.128;2024-02-26T00:50:33;100658.03;;;7.30;69.69
83140;BME280;73027;54.208;19.128;2024-02-26T00:52:59;100655.50;;;7.27;69.42
83140;BME280;73027;54.208;19.128;2024-02-26T00:55:24;100644.66;;;7.17;70.03
83140;BME280;73027;54.208;19.128;2024-02-26T00:57:49;100657.06;;;7.34;69.58
83140;BME280;73027;54.208;19.128;2024-02-26T01:00:15;100651.00;;;7.38;68.99
83140;BME280;73027;54.208;19.128;2024-02-26T01:02:41;100646.66;;;7.41;69.31
83140;BME280;73027;54.208;19.128;2024-02-26T01:05:12;100644.91;;;7.42;69.28
83140;BME280;73027;54.208;19.128;2024-02-26T01:07:37;100644.75;;;7.49;69.17
83140;BME280;73027;54.208;19.128;2024-02-26T01:10:04;100645.56;;;7.51;69.07
83140;BME280;73027;54.208;19.128;2024-02-26T01:12:31;100638.69;;;7.53;69.16
83140;BME280;73027;54.208;19.128;2024-02-26T01:14:57;100653.16;;;7.56;69.22
83140;BME280;73027;54.208;19.128;2024-02-26T01:17:22;100645.50;;;7.54;69.34
83140;BME280;73027;54.208;19.128;2024-02-26T01:19:47;100649.88;;;7.49;69.37
83140;BME280;73027;54.208;19.128;2024-02-26T01:22:13;100655.00;;;7.49;68.93
83140;BME280;73027;54.208;19.128;2024-02-26T01:24:38;100652.34;;;7.54;68.47
83140;BME280;73027;54.208;19.128;2024-02-26T01:27:04;100654.06;;;7.53;68.29
83140;BME280;73027;54.208;19.128;2024-02-26T01:29:29;100653.19;;;7.54;68.41
83140;BME280;73027;54.208;19.128;2024-02-26T01:31:55;100644.88;;;7.45;68.66
83140;BME280;73027;54.208;19.128;2024-02-26T01:34:20;100650.91;;;7.42;67.99
83140;BME280;73027;54.208;19.128;2024-02-26T01:36:45;100648.44;;;7.38;68.14
83140;BME280;73027;54.208;19.128;2024-02-26T01:39:11;100646.13;;;7.27;67.76
83140;BME280;73027;54.208;19.128;2024-02-26T01:41:38;100636.19;;;7.13;68.43
83140;BME280;73027;54.208;19.128;2024-02-26T01:44:04;100641.38;;;7.10;68.21
83140;BME280;73027;54.208;19.128;2024-02-26T01:46:30;100652.41;;;7.12;68.62
83140;BME280;73027;54.208;19.128;2024-02-26T01:48:56;100654.03;;;7.18;67.63
83140;BME280;73027;54.208;19.128;2024-02-26T01:51:22;100659.88;;;7.23;68.09
83140;BME280;73027;54.208;19.128;2024-02-26T01:53:48;100658.06;;;7.27;67.93
83140;BME280;73027;54.208;19.128;2024-02-26T01:56:14;100663.97;;;7.30;67.82
83140;BME280;73027;54.208;19.128;2024-02-26T01:58:41;100660.72;;;7.24;67.52
83140;BME280;73027;54.208;19.128;2024-02-26T02:01:07;100667.13;;;7.03;67.14
83140;BME280;73027;54.208;19.128;2024-02-26T02:03:32;100665.00;;;6.82;67.55
83140;BME280;73027;54.208;19.128;2024-02-26T02:05:58;100667.47;;;6.86;68.67
83140;BME280;73027;54.208;19.128;2024-02-26T02:08:23;100666.56;;;6.89;67.67
83140;BME280;73027;54.208;19.128;2024-02-26T02:10:50;100659.97;;;6.79;68.04
83140;BME280;73027;54.208;19.128;2024-02-26T02:13:15;100664.94;;;6.85;69.09
83140;BME280;73027;54.208;19.128;2024-02-26T02:15:41;100664.06;;;6.87;68.51
83140;BME280;73027;54.208;19.128;2024-02-26T02:18:06;100663.16;;;6.90;67.97
83140;BME280;73027;54.208;19.128;2024-02-26T02:20:32;100658.28;;;6.76;67.98
83140;BME280;73027;54.208;19.128;2024-02-26T02:22:59;100664.53;;;6.63;68.31
83140;BME280;73027;54.208;19.128;2024-02-26T02:25:24;100660.97;;;6.72;68.68
83140;BME280;73027;54.208;19.128;2024-02-26T02:27:50;100668.44;;;6.81;68.39
83140;BME280;73027;54.208;19.128;2024-02-26T02:30:16;100659.97;;;6.79;68.20
83140;BME280;73027;54.208;19.128;2024-02-26T02:32:42;100667.00;;;6.67;67.68
83140;BME280;73027;54.208;19.128;2024-02-26T02:35:08;100669.94;;;6.46;67.62
83140;BME280;73027;54.208;19.128;2024-02-26T02:37:33;100676.22;;;6.30;68.68
83140;BME280;73027;54.208;19.128;2024-02-26T02:39:59;100670.63;;;6.08;68.21
83140;BME280;73027;54.208;19.128;2024-02-26T02:42:25;100677.50;;;6.05;68.87
83140;BME280;73027;54.208;19.128;2024-02-26T02:44:51;100663.81;;;6.09;69.41
83140;BME280;73027;54.208;19.128;2024-02-26T02:47:16;100677.38;;;6.14;69.08
83140;BME280;73027;54.208;19.128;2024-02-26T02:49:41;100662.25;;;5.99;69.00
83140;BME280;73027;54.208;19.128;2024-02-26T02:52:07;100672.31;;;6.09;70.08
83140;BME280;73027;54.208;19.128;2024-02-26T02:54:32;100681.00;;;5.99;70.04
83140;BME280;73027;54.208;19.128;2024-02-26T02:56:58;100688.19;;;5.74;69.08
83140;BME280;73027;54.208;19.128;2024-02-26T02:59:23;100675.78;;;5.50;70.21
83140;BME280;73027;54.208;19.128;2024-02-26T03:01:48;100682.75;;;5.39;70.35
83140;BME280;73027;54.208;19.128;2024-02-26T03:04:14;100678.66;;;5.27;70.46
83140;BME280;73027;54.208;19.128;2024-02-26T03:06:40;100670.28;;;5.16;71.51
83140;BME280;73027;54.208;19.128;2024-02-26T03:09:05;100688.88;;;5.27;71.12
83140;BME280;73027;54.208;19.128;2024-02-26T03:11:30;100681.25;;;5.23;71.22
83140;BME280;73027;54.208;19.128;2024-02-26T03:13:56;100685.41;;;5.30;72.16
83140;BME280;73027;54.208;19.128;2024-02-26T03:16:21;100686.31;;;5.26;71.08
83140;BME280;73027;54.208;19.128;2024-02-26T03:18:46;100694.13;;;5.15;71.08
83140;BME280;73027;54.208;19.128;2024-02-26T03:21:12;100688.16;;;5.15;71.45
83140;BME280;73027;54.208;19.128;2024-02-26T03:23:37;100677.84;;;5.22;71.16
83140;BME280;73027;54.208;19.128;2024-02-26T03:26:04;100683.69;;;5.32;71.59
83140;BME280;73027;54.208;19.128;2024-02-26T03:28:29;100670.88;;;5.35;71.61
83140;BME280;73027;54.208;19.128;2024-02-26T03:30:56;100681.09;;;5.34;71.16
83140;BME280;73027;54.208;19.128;2024-02-26T03:33:21;100676.94;;;5.28;71.21
83140;BME280;73027;54.208;19.128;2024-02-26T03:35:46;100671.91;;;5.22;71.38
83140;BME280;73027;54.208;19.128;2024-02-26T03:38:13;100666.94;;;5.11;71.00
83140;BME280;73027;54.208;19.128;2024-02-26T03:40:38;100680.56;;;5.13;71.50
83140;BME280;73027;54.208;19.128;2024-02-26T03:43:04;100679.56;;;5.22;71.42
83140;BME280;73027;54.208;19.128;2024-02-26T03:45:31;100681.22;;;5.26;71.53
83140;BME280;73027;54.208;19.128;2024-02-26T03:47:56;100682.84;;;5.32;70.97
83140;BME280;73027;54.208;19.128;2024-02-26T03:50:22;100677.00;;;5.23;70.92
83140;BME280;73027;54.208;19.128;2024-02-26T03:52:47;100684.56;;;5.29;71.04
83140;BME280;73027;54.208;19.128;2024-02-26T03:55:13;100681.78;;;5.48;70.81
83140;BME280;73027;54.208;19.128;2024-02-26T03:57:38;100682.41;;;5.63;70.35
83140;BME280;73027;54.208;19.128;2024-02-26T04:00:04;100680.59;;;5.68;69.70
83140;BME280;73027;54.208;19.128;2024-02-26T04:02:30;100679.63;;;5.75;70.03
83140;BME280;73027;54.208;19.128;2024-02-26T04:04:55;100694.81;;;5.91;69.51
83140;BME280;73027;54.208;19.128;2024-02-26T04:07:20;100692.25;;;5.88;69.09
83140;BME280;73027;54.208;19.128;2024-02-26T04:09:46;100693.94;;;5.90;69.53
83140;BME280;73027;54.208;19.128;2024-02-26T04:12:11;100690.63;;;5.82;68.62
83140;BME280;73027;54.208;19.128;2024-02-26T04:14:36;100688.19;;;5.74;68.76
83140;BME280;73027;54.208;19.128;2024-02-26T04:17:02;100689.78;;;5.82;68.92
83140;BME280;73027;54.208;19.128;2024-02-26T04:19:28;100692.34;;;5.82;68.52
83140;BME280;73027;54.208;19.128;2024-02-26T04:21:54;100703.41;;;5.81;68.61
83140;BME280;73027;54.208;19.128;2024-02-26T04:24:19;100704.56;;;5.61;67.76
83140;BME280;73027;54.208;19.128;2024-02-26T04:26:45;100709.94;;;5.42;67.91
83140;BME280;73027;54.208;19.128;2024-02-26T04:29:10;100706.63;;;5.35;69.09
83140;BME280;73027;54.208;19.128;2024-02-26T04:31:37;100705.69;;;5.44;69.34
83140;BME280;73027;54.208;19.128;2024-02-26T04:34:02;100708.19;;;5.47;68.71
83140;BME280;73027;54.208;19.128;2024-02-26T04:36:28;100700.53;;;5.45;69.00
83140;BME280;73027;54.208;19.128;2024-02-26T04:38:53;100713.97;;;5.58;69.24
83140;BME280;73027;54.208;19.128;2024-02-26T04:41:22;100724.09;;;5.64;68.93
83140;BME280;73027;54.208;19.128;2024-02-26T04:43:47;100711.38;;;5.61;69.21
83140;BME280;73027;54.208;19.128;2024-02-26T04:46:12;100711.47;;;5.55;68.32
83140;BME280;73027;54.208;19.128;2024-02-26T04:48:38;100716.00;;;5.36;68.93
83140;BME280;73027;54.208;19.128;2024-02-26T04:51:04;100715.09;;;5.37;69.29
83140;BME280;73027;54.208;19.128;2024-02-26T04:53:30;100717.59;;;5.42;69.58
83140;BME280;73027;54.208;19.128;2024-02-26T04:55:55;100719.31;;;5.43;69.02
83140;BME280;73027;54.208;19.128;2024-02-26T04:58:21;100727.31;;;5.17;68.88
83140;BME280;73027;54.208;19.128;2024-02-26T05:00:46;100728.63;;;4.76;69.76
83140;BME280;73027;54.208;19.128;2024-02-26T05:03:11;100738.28;;;4.46;70.82
83140;BME280;73027;54.208;19.128;2024-02-26T05:05:39;100738.34;;;4.37;71.71
83140;BME280;73027;54.208;19.128;2024-02-26T05:08:05;100740.06;;;4.35;72.09
83140;BME280;73027;54.208;19.128;2024-02-26T05:10:30;100744.41;;;4.26;72.05
83140;BME280;73027;54.208;19.128;2024-02-26T05:12:56;100739.47;;;4.05;72.60
83140;BME280;73027;54.208;19.128;2024-02-26T05:15:21;100742.06;;;3.99;73.21
83140;BME280;73027;54.208;19.128;2024-02-26T05:17:46;100745.47;;;4.00;73.69
83140;BME280;73027;54.208;19.128;2024-02-26T05:20:12;100743.66;;;4.11;73.76
83140;BME280;73027;54.208;19.128;2024-02-26T05:22:37;100747.81;;;4.24;74.59
83140;BME280;73027;54.208;19.128;2024-02-26T05:25:03;100746.88;;;4.32;74.21
83140;BME280;73027;54.208;19.128;2024-02-26T05:27:29;100755.25;;;4.48;73.91
83140;BME280;73027;54.208;19.128;2024-02-26T05:29:54;100745.75;;;4.64;73.90
83140;BME280;73027;54.208;19.128;2024-02-26T05:32:19;100749.06;;;4.73;73.28
83140;BME280;73027;54.208;19.128;2024-02-26T05:34:45;100738.81;;;4.75;73.22
83140;BME280;73027;54.208;19.128;2024-02-26T05:37:10;100753.19;;;4.84;73.24
83140;BME280;73027;54.208;19.128;2024-02-26T05:39:36;100747.31;;;4.77;72.91
83140;BME280;73027;54.208;19.128;2024-02-26T05:42:02;100755.94;;;4.65;72.88
83140;BME280;73027;54.208;19.128;2024-02-26T05:44:27;100755.09;;;4.66;73.56
83140;BME280;73027;54.208;19.128;2024-02-26T05:46:53;100753.47;;;4.58;73.26
83140;BME280;73027;54.208;19.128;2024-02-26T05:49:18;100756.97;;;4.45;74.04
83140;BME280;73027;54.208;19.128;2024-02-26T05:51:43;100755.31;;;4.44;74.67
83140;BME280;73027;54.208;19.128;2024-02-26T05:54:09;100757.69;;;4.62;74.75
83140;BME280;73027;54.208;19.128;2024-02-26T05:56:35;100760.03;;;4.82;74.69
83140;BME280;73027;54.208;19.128;2024-02-26T05:59:00;100753.13;;;4.93;74.62
83140;BME280;73027;54.208;19.128;2024-02-26T06:01:26;100760.59;;;5.08;74.54
83140;BME280;73027;54.208;19.128;2024-02-26T06:03:51;100765.66;;;5.12;74.10
83140;BME280;73027;54.208;19.128;2024-02-26T06:06:17;100767.31;;;5.15;73.50
83140;BME280;73027;54.208;19.128;2024-02-26T06:08:43;100767.50;;;5.01;73.32
83140;BME280;73027;54.208;19.128;2024-02-26T06:11:09;100776.88;;;4.98;73.76
83140;BME280;73027;54.208;19.128;2024-02-26T06:13:35;100771.81;;;4.93;73.53
83140;BME280;73027;54.208;19.128;2024-02-26T06:16:00;100781.06;;;5.05;74.43
83140;BME280;73027;54.208;19.128;2024-02-26T06:18:26;100783.50;;;5.14;73.93
83140;BME280;73027;54.208;19.128;2024-02-26T06:20:52;100790.28;;;5.15;73.78
83140;BME280;73027;54.208;19.128;2024-02-26T06:23:17;100794.63;;;5.07;73.86
83140;BME280;73027;54.208;19.128;2024-02-26T06:25:43;100797.22;;;5.05;73.91
83140;BME280;73027;54.208;19.128;2024-02-26T06:28:08;100811.56;;;5.15;73.88
83140;BME280;73027;54.208;19.128;2024-02-26T06:30:34;100807.19;;;5.26;73.75
83140;BME280;73027;54.208;19.128;2024-02-26T06:32:59;100805.44;;;5.32;73.30
83140;BME280;73027;54.208;19.128;2024-02-26T06:35:25;100800.28;;;5.33;73.83
83140;BME280;73027;54.208;19.128;2024-02-26T06:37:51;100801.09;;;5.40;73.64
83140;BME280;73027;54.208;19.128;2024-02-26T06:40:18;100801.09;;;5.38;73.13
83140;BME280;73027;54.208;19.128;2024-02-26T06:42:44;100797.63;;;5.44;73.92
83140;BME280;73027;54.208;19.128;2024-02-26T06:45:09;100813.69;;;5.53;73.62
83140;BME280;73027;54.208;19.128;2024-02-26T06:47:35;100805.91;;;5.61;73.56
83140;BME280;73027;54.208;19.128;2024-02-26T06:50:00;100799.94;;;5.63;73.41
83140;BME280;73027;54.208;19.128;2024-02-26T06:52:26;100817.66;;;5.75;73.67
83140;BME280;73027;54.208;19.128;2024-02-26T06:54:52;100813.31;;;5.81;73.09
83140;BME280;73027;54.208;19.128;2024-02-26T06:57:19;100814.91;;;5.94;73.12
83140;BME280;73027;54.208;19.128;2024-02-26T06:59:44;100813.81;;;6.08;72.83
83140;BME280;73027;54.208;19.128;2024-02-26T07:02:12;100794.34;;;6.01;72.48
83140;BME280;73027;54.208;19.128;2024-02-26T07:04:38;100817.22;;;6.09;71.93
83140;BME280;73027;54.208;19.128;2024-02-26T07:07:03;100812.06;;;6.10;71.45
83140;BME280;73027;54.208;19.128;2024-02-26T07:09:29;100818.81;;;6.16;71.01
83140;BME280;73027;54.208;19.128;2024-02-26T07:11:54;100823.09;;;6.17;70.95
83140;BME280;73027;54.208;19.128;2024-02-26T07:14:20;100824.56;;;6.33;71.11
83140;BME280;73027;54.208;19.128;2024-02-26T07:16:45;100829.38;;;6.50;70.79
83140;BME280;73027;54.208;19.128;2024-02-26T07:19:11;100830.22;;;6.52;70.02
83140;BME280;73027;54.208;19.128;2024-02-26T07:21:37;100844.00;;;6.43;69.32
83140;BME280;73027;54.208;19.128;2024-02-26T07:24:02;100846.78;;;6.27;69.62
83140;BME280;73027;54.208;19.128;2024-02-26T07:26:27;100828.16;;;6.18;70.17
83140;BME280;73027;54.208;19.128;2024-02-26T07:28:55;100849.25;;;6.34;69.71
83140;BME280;73027;54.208;19.128;2024-02-26T07:31:20;100844.19;;;6.31;68.56
83140;BME280;73027;54.208;19.128;2024-02-26T07:33:46;100852.88;;;6.18;68.64
83140;BME280;73027;54.208;19.128;2024-02-26T07:36:11;100847.06;;;6.10;69.31
83140;BME280;73027;54.208;19.128;2024-02-26T07:38:37;100846.38;;;5.97;69.01
83140;BME280;73027;54.208;19.128;2024-02-26T07:41:02;100849.09;;;5.82;69.70
83140;BME280;73027;54.208;19.128;2024-02-26T07:43:28;100858.31;;;5.95;70.14
83140;BME280;73027;54.208;19.128;2024-02-26T07:45:53;100856.38;;;6.14;69.53
83140;BME280;73027;54.208;19.128;2024-02-26T07:48:19;100857.94;;;6.24;69.70
83140;BME280;73027;54.208;19.128;2024-02-26T07:50:44;100857.75;;;6.35;69.21
83140;BME280;73027;54.208;19.128;2024-02-26T07:53:10;100865.50;;;6.32;68.29
83140;BME280;73027;54.208;19.128;2024-02-26T07:55:35;100860.44;;;6.26;67.89
83140;BME280;73027;54.208;19.128;2024-02-26T07:58:00;100867.31;;;6.25;68.99
83140;BME280;73027;54.208;19.128;2024-02-26T08:00:26;100866.34;;;6.32;68.52
83140;BME280;73027;54.208;19.128;2024-02-26T08:02:51;100852.69;;;6.33;68.02
83140;BME280;73027;54.208;19.128;2024-02-26T08:05:17;100856.97;;;6.30;68.21
83140;BME280;73027;54.208;19.128;2024-02-26T08:07:42;100870.59;;;6.33;68.45
83140;BME280;73027;54.208;19.128;2024-02-26T08:10:08;100877.19;;;6.46;68.80
83140;BME280;73027;54.208;19.128;2024-02-26T08:12:33;100880.00;;;6.30;68.49
83140;BME280;73027;54.208;19.128;2024-02-26T08:14:59;100876.59;;;6.31;69.33
83140;BME280;73027;54.208;19.128;2024-02-26T08:17:25;100876.34;;;6.46;69.45
83140;BME280;73027;54.208;19.128;2024-02-26T08:19:50;100889.16;;;6.46;68.27
83140;BME280;73027;54.208;19.128;2024-02-26T08:22:16;100895.06;;;6.49;69.14
83140;BME280;73027;54.208;19.128;2024-02-26T08:24:43;100895.59;;;6.69;68.74
83140;BME280;73027;54.208;19.128;2024-02-26T08:27:08;100897.66;;;7.00;69.10
83140;BME280;73027;54.208;19.128;2024-02-26T08:29:33;100900.53;;;7.31;68.06
83140;BME280;73027;54.208;19.128;2024-02-26T08:31:59;100896.88;;;7.44;67.76
83140;BME280;73027;54.208;19.128;2024-02-26T08:34:26;100895.13;;;7.46;66.37
83140;BME280;73027;54.208;19.128;2024-02-26T08:36:51;100899.69;;;7.30;65.79
83140;BME280;73027;54.208;19.128;2024-02-26T08:39:17;100894.16;;;7.05;66.29
83140;BME280;73027;54.208;19.128;2024-02-26T08:41:43;100912.06;;;7.07;67.17
83140;BME280;73027;54.208;19.128;2024-02-26T08:44:09;100909.41;;;7.11;67.37
83140;BME280;73027;54.208;19.128;2024-02-26T08:46:35;100923.38;;;7.43;66.91
83140;BME280;73027;54.208;19.128;2024-02-26T08:49:00;100913.91;;;7.48;66.55
83140;BME280;73027;54.208;19.128;2024-02-26T08:51:25;100918.41;;;7.34;66.44
83140;BME280;73027;54.208;19.128;2024-02-26T08:53:51;100921.97;;;7.27;66.62
83140;BME280;73027;54.208;19.128;2024-02-26T08:56:16;100918.38;;;7.35;66.82
83140;BME280;73027;54.208;19.128;2024-02-26T08:58:43;100914.53;;;7.60;66.67
83140;BME280;73027;54.208;19.128;2024-02-26T09:01:08;100922.25;;;7.57;66.70
83140;BME280;73027;54.208;19.128;2024-02-26T09:03:34;100918.41;;;7.80;67.34
83140;BME280;73027;54.208;19.128;2024-02-26T09:06:00;100910.34;;;7.98;66.77
83140;BME280;73027;54.208;19.128;2024-02-26T09:08:25;100921.91;;;8.15;66.58
83140;BME280;73027;54.208;19.128;2024-02-26T09:10:51;100932.56;;;8.39;66.52
83140;BME280;73027;54.208;19.128;2024-02-26T09:13:16;100929.81;;;8.46;65.45
83140;BME280;73027;54.208;19.128;2024-02-26T09:15:41;100941.25;;;8.33;65.38
83140;BME280;73027;54.208;19.128;2024-02-26T09:18:07;100935.97;;;7.98;65.67
83140;BME280;73027;54.208;19.128;2024-02-26T09:20:32;100939.34;;;8.01;66.79
83140;BME280;73027;54.208;19.128;2024-02-26T09:22:57;100933.03;;;8.16;67.42
83140;BME280;73027;54.208;19.128;2024-02-26T09:25:23;100932.25;;;8.12;66.70
83140;BME280;73027;54.208;19.128;2024-02-26T09:27:48;100939.09;;;8.13;67.17
83140;BME280;73027;54.208;19.128;2024-02-26T09:30:14;100931.34;;;8.15;67.38
83140;BME280;73027;54.208;19.128;2024-02-26T09:32:40;100940.66;;;8.19;67.53
83140;BME280;73027;54.208;19.128;2024-02-26T09:35:06;100941.66;;;8.13;67.65
83140;BME280;73027;54.208;19.128;2024-02-26T09:37:32;100947.78;;;8.06;67.25
83140;BME280;73027;54.208;19.128;2024-02-26T09:39:58;100950.34;;;8.06;68.20
83140;BME280;73027;54.208;19.128;2024-02-26T09:42:26;100946.78;;;8.13;69.00
83140;BME280;73027;54.208;19.128;2024-02-26T09:44:54;100955.66;;;8.39;68.92
83140;BME280;73027;54.208;19.128;2024-02-26T09:47:26;100954.09;;;8.70;68.66
83140;BME280;73027;54.208;19.128;2024-02-26T09:49:53;100951.72;;;8.99;68.08
83140;BME280;73027;54.208;19.128;2024-02-26T09:52:21;100959.72;;;9.21;67.81
83140;BME280;73027;54.208;19.128;2024-02-26T09:54:48;100951.53;;;9.39;67.00
83140;BME280;73027;54.208;19.128;2024-02-26T09:57:13;100959.03;;;9.48;66.26
83140;BME280;73027;54.208;19.128;2024-02-26T09:59:42;100955.41;;;9.55;66.47
83140;BME280;73027;54.208;19.128;2024-02-26T10:02:14;100957.44;;;9.43;66.46
83140;BME280;73027;54.208;19.128;2024-02-26T10:04:40;100969.69;;;9.66;66.66
83140;BME280;73027;54.208;19.128;2024-02-26T10:07:10;100969.13;;;9.87;65.98
83140;BME280;73027;54.208;19.128;2024-02-26T10:09:36;100972.38;;;9.93;65.73
83140;BME280;73027;54.208;19.128;2024-02-26T10:12:02;100967.78;;;10.04;65.49
83140;BME280;73027;54.208;19.128;2024-02-26T10:14:28;100958.66;;;10.24;65.29
83140;BME280;73027;54.208;19.128;2024-02-26T10:16:53;100964.03;;;10.45;65.61
83140;BME280;73027;54.208;19.128;2024-02-26T10:19:29;100967.13;;;10.57;64.90
83140;BME280;73027;54.208;19.128;2024-02-26T10:22:01;100969.97;;;10.75;64.68
83140;BME280;73027;54.208;19.128;2024-02-26T10:24:29;100968.75;;;10.87;64.35
83140;BME280;73027;54.208;19.128;2024-02-26T10:26:55;100965.91;;;10.96;64.24
83140;BME280;73027;54.208;19.128;2024-02-26T10:29:21;100965.41;;;11.11;63.98
83140;BME280;73027;54.208;19.128;2024-02-26T10:31:47;100970.16;;;11.23;63.63
83140;BME280;73027;54.208;19.128;2024-02-26T10:34:14;100964.75;;;11.31;63.05
83140;BME280;73027;54.208;19.128;2024-02-26T10:36:40;100975.59;;;11.40;62.89
83140;BME280;73027;54.208;19.128;2024-02-26T10:39:09;100971.28;;;11.41;63.16
83140;BME280;73027;54.208;19.128;2024-02-26T10:41:36;100960.88;;;11.67;62.67
83140;BME280;73027;54.208;19.128;2024-02-26T10:44:02;100965.19;;;11.93;62.45
83140;BME280;73027;54.208;19.128;2024-02-26T10:46:27;100966.94;;;12.16;62.12
83140;BME280;73027;54.208;19.128;2024-02-26T10:48:53;100966.22;;;12.34;61.37
83140;BME280;73027;54.208;19.128;2024-02-26T10:51:30;100971.22;;;12.38;60.74
83140;BME280;73027;54.208;19.128;2024-02-26T10:53:57;100972.25;;;12.34;61.15
83140;BME280;73027;54.208;19.128;2024-02-26T10:56:29;100969.72;;;12.33;61.23
83140;BME280;73027;54.208;19.128;2024-02-26T10:58:58;100974.03;;;12.32;60.70
83140;BME280;73027;54.208;19.128;2024-02-26T11:01:24;100964.66;;;12.07;60.62
83140;BME280;73027;54.208;19.128;2024-02-26T11:03:55;100962.88;;;11.85;61.57
83140;BME280;73027;54.208;19.128;2024-02-26T11:06:21;100965.06;;;11.96;61.69
83140;BME280;73027;54.208;19.128;2024-02-26T11:08:50;100960.53;;;11.78;60.73
83140;BME280;73027;54.208;19.128;2024-02-26T11:11:17;100958.41;;;11.39;62.12
83140;BME280;73027;54.208;19.128;2024-02-26T11:13:47;100964.97;;;11.50;62.97
83140;BME280;73027;54.208;19.128;2024-02-26T11:16:20;100962.97;;;11.82;62.99
83140;BME280;73027;54.208;19.128;2024-02-26T11:18:46;100971.28;;;12.14;62.43
83140;BME280;73027;54.208;19.128;2024-02-26T11:21:15;100970.34;;;12.39;61.59
83140;BME280;73027;54.208;19.128;2024-02-26T11:23:41;100960.66;;;12.45;61.38
83140;BME280;73027;54.208;19.128;2024-02-26T11:26:08;100976.16;;;12.45;60.26
83140;BME280;73027;54.208;19.128;2024-02-26T11:28:37;100976.28;;;12.41;60.36
83140;BME280;73027;54.208;19.128;2024-02-26T11:31:04;100977.13;;;12.64;60.83
83140;BME280;73027;54.208;19.128;2024-02-26T11:33:31;100971.84;;;13.10;59.92
83140;BME280;73027;54.208;19.128;2024-02-26T11:35:57;100969.81;;;13.59;59.34
83140;BME280;73027;54.208;19.128;2024-02-26T11:38:26;100967.28;;;13.77;59.31
83140;BME280;73027;54.208;19.128;2024-02-26T11:40:53;100961.63;;;14.07;58.81
83140;BME280;73027;54.208;19.128;2024-02-26T11:43:23;100962.16;;;14.88;57.94
83140;BME280;73027;54.208;19.128;2024-02-26T11:45:49;100959.44;;;15.43;56.11
83140;BME280;73027;54.208;19.128;2024-02-26T11:48:20;100965.25;;;15.98;55.51
83140;BME280;73027;54.208;19.128;2024-02-26T11:50:52;100969.84;;;16.57;54.21
83140;BME280;73027;54.208;19.128;2024-02-26T11:58:48;100976.38;;;15.15;54.56
83140;BME280;73027;54.208;19.128;2024-02-26T12:01:40;100969.50;;;15.14;54.14
83140;BME280;73027;54.208;19.128;2024-02-26T12:04:28;100973.59;;;14.84;54.75
83140;BME280;73027;54.208;19.128;2024-02-26T12:07:00;100971.22;;;14.44;55.75
83140;BME280;73027;54.208;19.128;2024-02-26T12:09:39;100965.94;;;14.45;55.88
83140;BME280;73027;54.208;19.128;2024-02-26T12:12:10;100964.53;;;15.10;55.45
83140;BME280;73027;54.208;19.128;2024-02-26T12:14:52;100970.41;;;16.46;53.43
83140;BME280;73027;54.208;19.128;2024-02-26T12:17:23;100970.50;;;16.76;51.45
83140;BME280;73027;54.208;19.128;2024-02-26T12:19:49;100964.34;;;16.93;50.39
83140;BME280;73027;54.208;19.128;2024-02-26T12:22:15;100976.22;;;16.67;50.57
83140;BME280;73027;54.208;19.128;2024-02-26T12:24:42;100988.84;;;16.42;50.28
83140;BME280;73027;54.208;19.128;2024-02-26T12:27:07;100983.44;;;16.78;51.08
83140;BME280;73027;54.208;19.128;2024-02-26T12:29:32;100981.34;;;17.88;50.25
83140;BME280;73027;54.208;19.128;2024-02-26T12:31:58;100972.81;;;18.55;47.59
83140;BME280;73027;54.208;19.128;2024-02-26T12:34:23;100968.41;;;19.09;47.02
83140;BME280;73027;54.208;19.128;2024-02-26T12:36:49;100972.56;;;19.89;45.88
83140;BME280;73027;54.208;19.128;2024-02-26T12:39:14;100969.88;;;20.52;44.45
83140;BME280;73027;54.208;19.128;2024-02-26T12:41:40;100961.63;;;20.93;43.95
83140;BME280;73027;54.208;19.128;2024-02-26T12:44:07;100966.47;;;21.45;42.65
83140;BME280;73027;54.208;19.128;2024-02-26T12:46:33;100963.41;;;21.84;41.61
83140;BME280;73027;54.208;19.128;2024-02-26T12:48:58;100970.09;;;22.33;40.31